Time,TemperatureF,DewpointF,PressureIn,WindDirection,WindDirectionDegrees,WindSpeedMPH,WindSpeedGustMPH,Humidity,HourlyPrecipIn,Conditions,Clouds,dailyrainin,SoftwareType,DateUTC
2013-11-13 00:07:00,31.6,15.1,30.35,East,90,0.0,-999.0,50,-99.99,,,0.00,Acu-Link.com,2013-11-13 05:07:00,
2013-11-13 00:23:00,31.3,15.7,30.35,North,0,0.0,-999.0,52,-99.99,,,0.00,Acu-Link.com,2013-11-13 05:23:00,
2013-11-13 00:38:00,30.9,14.9,30.36,NNW,337,2.2,-999.0,51,-99.99,,,0.00,Acu-Link.com,2013-11-13 05:38:00,
2013-11-13 00:53:00,30.7,15.2,30.35,SW,225,0.0,-999.0,52,-99.99,,,0.00,Acu-Link.com,2013-11-13 05:53:00,
2013-11-13 01:10:00,30.0,15.8,30.35,South,180,0.0,-999.0,55,-99.99,,,0.00,Acu-Link.com,2013-11-13 06:10:00,
2013-11-13 01:25:00,29.1,17.4,30.36,SSW,202,0.0,-999.0,61,-99.99,,,0.00,Acu-Link.com,2013-11-13 06:25:00,
2013-11-13 01:40:00,28.4,17.4,30.36,West,270,0.0,-999.0,63,-99.99,,,0.00,Acu-Link.com,2013-11-13 06:40:00,
2013-11-13 01:55:00,28.2,18.0,30.36,ESE,112,0.0,-999.0,65,-99.99,,,0.00,Acu-Link.com,2013-11-13 06:55:00,
2013-11-13 02:10:00,27.7,16.4,30.36,SSE,157,0.0,-999.0,62,-99.99,,,0.00,Acu-Link.com,2013-11-13 07:10:00,
2013-11-13 02:25:00,26.8,17.3,30.36,NNW,337,0.0,-999.0,67,-99.99,,,0.00,Acu-Link.com,2013-11-13 07:25:00,
2013-11-13 02:40:00,27.0,17.2,30.37,SSW,202,0.0,-999.0,66,-99.99,,,0.00,Acu-Link.com,2013-11-13 07:40:00,
2013-11-13 02:55:00,26.4,17.3,30.37,SE,135,0.0,-999.0,68,-99.99,,,0.00,Acu-Link.com,2013-11-13 07:55:00,
2013-11-13 03:11:00,25.9,17.8,30.37,NNW,337,0.0,-999.0,71,-99.99,,,0.00,Acu-Link.com,2013-11-13 08:11:00,
2013-11-13 03:26:00,25.7,17.9,30.37,SSW,202,0.0,-999.0,72,-99.99,,,0.00,Acu-Link.com,2013-11-13 08:26:00,
2013-11-13 03:41:00,25.5,18.1,30.36,SE,135,0.0,-999.0,73,-99.99,,,0.00,Acu-Link.com,2013-11-13 08:41:00,
2013-11-13 03:56:00,25.3,18.2,30.37,South,180,0.0,-999.0,74,-99.99,,,0.00,Acu-Link.com,2013-11-13 08:56:00,
2013-11-13 04:11:00,24.8,18.3,30.37,ESE,112,0.0,-999.0,76,-99.99,,,0.00,Acu-Link.com,2013-11-13 09:11:00,
2013-11-13 04:26:00,24.6,18.4,30.38,SSE,157,0.0,-999.0,77,-99.99,,,0.00,Acu-Link.com,2013-11-13 09:26:00,
2013-11-13 04:42:00,24.3,18.4,30.38,SE,135,0.0,-999.0,78,-99.99,,,0.00,Acu-Link.com,2013-11-13 09:42:00,
2013-11-13 04:57:00,24.1,17.3,30.38,SSE,157,0.0,-999.0,75,-99.99,,,0.00,Acu-Link.com,2013-11-13 09:57:00,
2013-11-13 05:12:00,23.7,17.9,30.38,NNW,337,0.0,-999.0,78,-99.99,,,0.00,Acu-Link.com,2013-11-13 10:12:00,
2013-11-13 05:27:00,23.7,19.0,30.38,SSE,157,0.0,-999.0,82,-99.99,,,0.00,Acu-Link.com,2013-11-13 10:27:00,
2013-11-13 05:42:00,23.4,18.4,30.39,SSE,157,0.0,-999.0,81,-99.99,,,0.00,Acu-Link.com,2013-11-13 10:42:00,
2013-11-13 05:57:00,23.2,18.8,30.39,South,180,0.0,-999.0,83,-99.99,,,0.00,Acu-Link.com,2013-11-13 10:57:00,
2013-11-13 06:12:00,22.8,18.4,30.38,SSE,157,0.0,-999.0,83,-99.99,,,0.00,Acu-Link.com,2013-11-13 11:12:00,
2013-11-13 06:28:00,22.5,18.7,30.38,ESE,112,0.0,-999.0,85,-99.99,,,0.00,Acu-Link.com,2013-11-13 11:28:00,
2013-11-13 06:43:00,22.1,18.8,30.39,NE,45,0.0,-999.0,87,-99.99,,,0.00,Acu-Link.com,2013-11-13 11:43:00,
2013-11-13 06:59:00,21.9,19.4,30.39,SSE,157,0.0,-999.0,90,-99.99,,,0.00,Acu-Link.com,2013-11-13 11:59:00,
2013-11-13 07:14:00,21.9,19.7,30.40,SSE,157,0.0,-999.0,91,-99.99,,,0.00,Acu-Link.com,2013-11-13 12:14:00,
2013-11-13 07:30:00,21.7,19.5,30.40,SSE,157,0.0,-999.0,91,-99.99,,,0.00,Acu-Link.com,2013-11-13 12:30:00,
2013-11-13 07:45:00,22.1,19.9,30.41,SE,135,0.0,-999.0,91,-99.99,,,0.00,Acu-Link.com,2013-11-13 12:45:00,
2013-11-13 08:01:00,22.3,19.8,30.41,West,270,0.0,-999.0,90,-99.99,,,0.00,Acu-Link.com,2013-11-13 13:01:00,
2013-11-13 08:16:00,23.5,21.3,30.42,SE,135,0.0,-999.0,91,-99.99,,,0.00,Acu-Link.com,2013-11-13 13:16:00,
2013-11-13 08:32:00,25.2,22.7,30.42,ESE,112,0.0,-999.0,90,-99.99,,,0.00,Acu-Link.com,2013-11-13 13:32:00,
2013-11-13 08:47:00,27.0,23.7,30.43,NNE,22,0.0,-999.0,87,-99.99,,,0.00,Acu-Link.com,2013-11-13 13:47:00,
2013-11-13 09:02:00,29.1,17.4,30.43,NW,315,0.0,-999.0,61,-99.99,,,0.00,Acu-Link.com,2013-11-13 14:02:00,
2013-11-13 09:17:00,31.5,18.0,30.43,NNE,22,0.0,-999.0,57,-99.99,,,0.00,Acu-Link.com,2013-11-13 14:17:00,
2013-11-13 09:32:00,33.3,17.6,30.44,NE,45,2.7,-999.0,52,-99.99,,,0.00,Acu-Link.com,2013-11-13 14:32:00,
2013-11-13 09:47:00,34.9,16.7,30.44,East,90,0.0,-999.0,47,-99.99,,,0.00,Acu-Link.com,2013-11-13 14:47:00,
2013-11-13 10:03:00,36.1,16.8,30.44,ENE,67,3.2,-999.0,45,-99.99,,,0.00,Acu-Link.com,2013-11-13 15:03:00,
2013-11-13 10:19:00,37.4,16.4,30.43,SE,135,0.0,-999.0,42,-99.99,,,0.00,Acu-Link.com,2013-11-13 15:19:00,
2013-11-13 10:34:00,38.8,16.6,30.44,SSW,202,0.0,-999.0,40,-99.99,,,0.00,Acu-Link.com,2013-11-13 15:34:00,
2013-11-13 10:49:00,39.9,15.8,30.44,ENE,67,2.7,-999.0,37,-99.99,,,0.00,Acu-Link.com,2013-11-13 15:49:00,
2013-11-13 11:04:00,41.4,15.8,30.44,ESE,112,2.7,-999.0,35,-99.99,,,0.00,Acu-Link.com,2013-11-13 16:04:00,
2013-11-13 11:19:00,42.3,13.8,30.43,WNW,292,1.7,-999.0,31,-99.99,,,0.00,Acu-Link.com,2013-11-13 16:19:00,
2013-11-13 11:34:00,44.2,16.2,30.42,ESE,112,1.7,-999.0,32,-99.99,,,0.00,Acu-Link.com,2013-11-13 16:34:00,
2013-11-13 11:50:00,45.0,16.9,30.41,NNE,22,0.0,-999.0,32,-99.99,,,0.00,Acu-Link.com,2013-11-13 16:50:00,
2013-11-13 12:05:00,46.8,13.7,30.41,ENE,67,2.7,-999.0,26,-99.99,,,0.00,Acu-Link.com,2013-11-13 17:05:00,
2013-11-13 12:20:00,48.7,11.6,30.40,West,270,0.0,-999.0,22,-99.99,,,0.00,Acu-Link.com,2013-11-13 17:20:00,
2013-11-13 12:35:00,47.1,9.2,30.39,NNW,337,3.2,-999.0,21,-99.99,,,0.00,Acu-Link.com,2013-11-13 17:35:00,
2013-11-13 12:51:00,47.3,11.4,30.38,SSW,202,0.0,-999.0,23,-99.99,,,0.00,Acu-Link.com,2013-11-13 17:51:00,
2013-11-13 13:06:00,49.1,11.9,30.37,East,90,1.7,-999.0,22,-99.99,,,0.00,Acu-Link.com,2013-11-13 18:06:00,
2013-11-13 13:21:00,51.6,10.7,30.36,ESE,112,2.2,-999.0,19,-99.99,,,0.00,Acu-Link.com,2013-11-13 18:21:00,
2013-11-13 13:36:00,51.6,15.0,30.36,SSW,202,0.0,-999.0,23,-99.99,,,0.00,Acu-Link.com,2013-11-13 18:36:00,
2013-11-13 13:51:00,51.4,12.8,30.35,South,180,0.0,-999.0,21,-99.99,,,0.00,Acu-Link.com,2013-11-13 18:51:00,
2013-11-13 14:06:00,51.4,14.9,30.35,SSW,202,0.0,-999.0,23,-99.99,,,0.00,Acu-Link.com,2013-11-13 19:06:00,
2013-11-13 14:22:00,51.3,11.6,30.34,NNW,337,1.7,-999.0,20,-99.99,,,0.00,Acu-Link.com,2013-11-13 19:22:00,
2013-11-13 14:37:00,50.5,11.0,30.34,WNW,292,2.2,-999.0,20,-99.99,,,0.00,Acu-Link.com,2013-11-13 19:37:00,
2013-11-13 14:52:00,50.2,12.8,30.33,West,270,1.7,-999.0,22,-99.99,,,0.00,Acu-Link.com,2013-11-13 19:52:00,
2013-11-13 15:07:00,49.8,13.5,30.33,West,270,2.2,-999.0,23,-99.99,,,0.00,Acu-Link.com,2013-11-13 20:07:00,
2013-11-13 15:23:00,49.8,14.5,30.34,NW,315,0.0,-999.0,24,-99.99,,,0.00,Acu-Link.com,2013-11-13 20:23:00,
2013-11-13 15:38:00,49.1,11.9,30.34,NNE,22,1.7,-999.0,22,-99.99,,,0.00,Acu-Link.com,2013-11-13 20:38:00,
2013-11-13 15:53:00,48.7,14.5,30.33,South,180,0.0,-999.0,25,-99.99,,,0.00,Acu-Link.com,2013-11-13 20:53:00,
2013-11-13 16:08:00,48.2,14.1,30.34,SSE,157,0.0,-999.0,25,-99.99,,,0.00,Acu-Link.com,2013-11-13 21:08:00,
2013-11-13 16:23:00,47.7,13.6,30.34,SSW,202,0.0,-999.0,25,-99.99,,,0.00,Acu-Link.com,2013-11-13 21:23:00,
2013-11-13 16:38:00,46.9,14.7,30.34,SSE,157,0.0,-999.0,27,-99.99,,,0.00,Acu-Link.com,2013-11-13 21:38:00,
2013-11-13 16:53:00,46.0,14.7,30.34,South,180,0.0,-999.0,28,-99.99,,,0.00,Acu-Link.com,2013-11-13 21:53:00,
2013-11-13 17:08:00,45.5,14.3,30.34,SSW,202,0.0,-999.0,28,-99.99,,,0.00,Acu-Link.com,2013-11-13 22:08:00,
2013-11-13 17:24:00,44.2,20.2,30.34,SSW,202,0.0,-999.0,38,-99.99,,,0.00,Acu-Link.com,2013-11-13 22:24:00,
2013-11-13 17:39:00,42.8,21.3,30.34,SSW,202,0.0,-999.0,42,-99.99,,,0.00,Acu-Link.com,2013-11-13 22:39:00,
2013-11-13 17:54:00,41.9,21.6,30.34,South,180,0.0,-999.0,44,-99.99,,,0.00,Acu-Link.com,2013-11-13 22:54:00,
2013-11-13 18:09:00,40.3,20.1,30.35,South,180,0.0,-999.0,44,-99.99,,,0.00,Acu-Link.com,2013-11-13 23:09:00,
2013-11-13 18:25:00,39.2,20.2,30.35,SSE,157,0.0,-999.0,46,-99.99,,,0.00,Acu-Link.com,2013-11-13 23:25:00,
2013-11-13 18:40:00,37.8,21.3,30.35,South,180,0.0,-999.0,51,-99.99,,,0.00,Acu-Link.com,2013-11-13 23:40:00,
2013-11-13 18:55:00,37.2,21.7,30.36,SSE,157,0.0,-999.0,53,-99.99,,,0.00,Acu-Link.com,2013-11-13 23:55:00,
2013-11-13 19:10:00,36.3,22.1,30.36,SE,135,0.0,-999.0,56,-99.99,,,0.00,Acu-Link.com,2013-11-14 00:10:00,
2013-11-13 19:25:00,35.4,21.7,30.36,South,180,0.0,-999.0,57,-99.99,,,0.00,Acu-Link.com,2013-11-14 00:25:00,
2013-11-13 19:42:00,34.7,23.0,30.36,South,180,0.0,-999.0,62,-99.99,,,0.00,Acu-Link.com,2013-11-14 00:42:00,
2013-11-13 19:57:00,33.8,22.6,30.37,SSW,202,0.0,-999.0,63,-99.99,,,0.00,Acu-Link.com,2013-11-14 00:57:00,
2013-11-13 20:12:00,33.1,23.0,30.37,South,180,0.0,-999.0,66,-99.99,,,0.00,Acu-Link.com,2013-11-14 01:12:00,
2013-11-13 20:27:00,32.5,23.1,30.37,South,180,0.0,-999.0,68,-99.99,,,0.00,Acu-Link.com,2013-11-14 01:27:00,
2013-11-13 20:43:00,31.8,22.8,30.37,SSW,202,0.0,-999.0,69,-99.99,,,0.00,Acu-Link.com,2013-11-14 01:43:00,
2013-11-13 20:58:00,31.1,22.1,30.37,SE,135,0.0,-999.0,69,-99.99,,,0.00,Acu-Link.com,2013-11-14 01:58:00,
2013-11-13 21:13:00,30.6,22.3,30.38,South,180,0.0,-999.0,71,-99.99,,,0.00,Acu-Link.com,2013-11-14 02:13:00,
2013-11-13 21:29:00,30.0,22.7,30.38,South,180,0.0,-999.0,74,-99.99,,,0.00,Acu-Link.com,2013-11-14 02:29:00,
2013-11-13 21:44:00,29.7,23.1,30.37,NNW,337,0.0,-999.0,76,-99.99,,,0.00,Acu-Link.com,2013-11-14 02:44:00,
2013-11-13 22:00:00,29.5,23.5,30.38,SSE,157,0.0,-999.0,78,-99.99,,,0.00,Acu-Link.com,2013-11-14 03:00:00,
2013-11-13 22:15:00,29.1,23.4,30.38,SSE,157,0.0,-999.0,79,-99.99,,,0.00,Acu-Link.com,2013-11-14 03:15:00,
2013-11-13 22:30:00,28.8,23.7,30.38,South,180,0.0,-999.0,81,-99.99,,,0.00,Acu-Link.com,2013-11-14 03:30:00,
2013-11-13 22:47:00,28.6,23.5,30.38,ESE,112,0.0,-999.0,81,-99.99,,,0.00,Acu-Link.com,2013-11-14 03:47:00,
2013-11-13 23:02:00,28.2,24.0,30.38,NW,315,0.0,-999.0,84,-99.99,,,0.00,Acu-Link.com,2013-11-14 04:02:00,
2013-11-13 23:17:00,28.2,24.0,30.37,NNW,337,0.0,-999.0,84,-99.99,,,0.00,Acu-Link.com,2013-11-14 04:17:00,
2013-11-13 23:33:00,28.0,23.5,30.37,NNW,337,0.0,-999.0,83,-99.99,,,0.00,Acu-Link.com,2013-11-14 04:33:00,
2013-11-13 23:48:00,28.0,23.8,30.37,SSE,157,0.0,-999.0,84,-99.99,,,0.00,Acu-Link.com,2013-11-14 04:48:00,